Kamiah, Idaho
Current Conditions -  °F | °C
As of 5:55 PM on Saturday 25 Oct 2014 (Local Time) from KGIC Reporting Station
Clear Clear  
Wind Chill: 65°   Ceiling: Unl
Heat Index: 65°   Visibility: 10mi
Dew Point: 31°   Wind: 18mph
Humidity: 28%   Direction: 210°SSW
Pressure: 29.67"   Gusts: 25mph
Location:  46.23°N, 116.03°W
Report Text: KGIC 260055Z AUTO 21016G22KT 10SM CLR 18/M01 A2967 RMK AO1 T01831008
Loading
Personal Weather Stations






























Interactive Weather Map
Tropical Storm Tracking
New forecast layout! Learn more

10-Day Weather Forecast

Advertisements
Track Severe Weather on mobile